This is the latest recevied weather packets stored in our database for station/object KD5HIA. If no packets are shown the sender has not sent any weather packets the latest 10 day(s).
| Time | Temp. | Humidity | Pressure | Rain* | Wind** | Luminosity | Snow |
|---|---|---|---|---|---|---|---|
| 1778181018 | 16.67° C | 63% | 1018.1 hPa | 0 mm | - | 115 W/m² | - |
| 1778180418 | 16.67° C | 62% | 1018.9 hPa | 0 mm | - | 78 W/m² | - |
| 1778179818 | 16.67° C | 61% | 1018.6 hPa | 0 mm | - | 82 W/m² | - |
| 1778179218 | 17.22° C | 61% | 1018.3 hPa | 0 mm | - | 232 W/m² | - |
| 1778178618 | 17.22° C | 59% | 1018.3 hPa | 0 mm | - | 227 W/m² | - |
| 1778178018 | 17.22° C | 58% | 1018.8 hPa | 0 mm | - | 77 W/m² | - |
| 1778177418 | 17.78° C | 59% | 1018.5 hPa | 0 mm | - | 153 W/m² | - |
| 1778176818 | 18.33° C | 59% | 1018.8 hPa | 0 mm | - | 501 W/m² | - |
| 1778176218 | 17.78° C | 59% | 1019.4 hPa | 0 mm | - | 242 W/m² | - |
| 1778175616 | 17.22° C | 59% | 1018.9 hPa | 0 mm | - | 556 W/m² | - |
| 1778175016 | 17.78° C | 57% | 1018.9 hPa | 0 mm | - | 356 W/m² | - |
| 1778174416 | 17.22° C | 62% | 1018.9 hPa | 0 mm | - | 508 W/m² | - |
| 1778173818 | 16.67° C | 63% | 1019.1 hPa | 0 mm | - | 307 W/m² | - |
| 1778173216 | 16.11° C | 63% | 1019.4 hPa | 0 mm | - | 296 W/m² | - |
| 1778172616 | 16.11° C | 64% | 1019.1 hPa | 0 mm | - | 413 W/m² | - |
| 1778172016 | 15.56° C | 66% | 1019.2 hPa | 0 mm | - | 377 W/m² | - |
| 1778171416 | 16.11° C | 67% | 1019.4 hPa | 0 mm | - | 698 W/m² | - |
| 1778170816 | 15° C | 68% | 1019.5 hPa | 0 mm | - | 282 W/m² | - |
| 1778170216 | 14.44° C | 69% | 1019.6 hPa | 0 mm | - | 201 W/m² | - |
| 1778169616 | 14.44° C | 69% | 1019.4 hPa | 0 mm | - | 217 W/m² | - |
| 1778169016 | 14.44° C | 70% | 1019.4 hPa | 0 mm | - | 254 W/m² | - |
| 1778168416 | 14.44° C | 71% | 1019.4 hPa | 0 mm | - | 282 W/m² | - |
| 1778167816 | 14.44° C | 72% | 1019.5 hPa | 0 mm | - | 313 W/m² | - |
| 1778167216 | 14.44° C | 72% | 1019.9 hPa | 0 mm | - | 365 W/m² | - |
| 1778166616 | 13.33° C | 74% | 1019.7 hPa | 0 mm | - | 211 W/m² | - |
* Rain latest hour (hover to see other rain measurements)
** Current wind speed in m/s (hover to see current wind gust speed)